createdAt,value
2019-05-05T00:00:57.087Z,3.45
2019-05-05T00:01:57.128Z,3.35
2019-05-05T00:02:57.246Z,3.42
2019-05-05T00:03:57.260Z,3.30
2019-05-05T00:04:57.337Z,3.37
2019-05-05T00:05:57.382Z,3.46
2019-05-05T00:06:57.371Z,3.50
2019-05-05T00:07:57.465Z,3.50
2019-05-05T00:08:57.498Z,3.46
2019-05-05T00:09:57.570Z,3.34
2019-05-05T00:10:57.677Z,3.31
2019-05-05T00:11:57.672Z,3.34
2019-05-05T00:12:57.681Z,3.42
2019-05-05T00:13:57.801Z,3.39
2019-05-05T00:14:57.815Z,3.35
2019-05-05T00:15:57.879Z,3.41
2019-05-05T00:16:57.882Z,3.39
2019-05-05T00:17:57.956Z,3.42
2019-05-05T00:18:58.030Z,3.30
2019-05-05T00:19:58.108Z,3.34
2019-05-05T00:20:58.163Z,3.41
2019-05-05T00:21:58.224Z,3.30
2019-05-05T00:22:58.198Z,3.28
2019-05-05T00:23:58.240Z,3.33
2019-05-05T00:24:58.379Z,3.42
2019-05-05T00:25:58.341Z,3.39
2019-05-05T00:26:58.503Z,3.41
2019-05-05T00:27:58.476Z,3.42
2019-05-05T00:28:58.529Z,3.45
2019-05-05T00:29:58.633Z,3.46
2019-05-05T00:30:58.615Z,3.30
2019-05-05T00:31:58.717Z,3.31
2019-05-05T00:32:58.767Z,3.31
2019-05-05T00:33:58.840Z,3.31
2019-05-05T00:34:58.877Z,3.23
2019-05-05T00:35:58.906Z,3.19
2019-05-05T00:36:58.999Z,3.19
2019-05-05T00:37:59.006Z,3.17
2019-05-05T00:38:59.029Z,3.17
2019-05-05T00:39:59.108Z,3.13
2019-05-05T00:40:59.149Z,3.15
2019-05-05T00:41:59.221Z,3.20
2019-05-05T00:42:59.236Z,3.20
2019-05-05T00:43:59.266Z,3.26
2019-05-05T00:44:59.399Z,3.12
2019-05-05T00:45:59.401Z,3.13
2019-05-05T00:46:59.555Z,3.13
2019-05-05T00:47:59.522Z,3.16
2019-05-05T00:48:59.565Z,3.16
2019-05-05T00:49:59.623Z,3.23
2019-05-05T00:50:59.653Z,3.13
2019-05-05T00:51:59.677Z,3.22
2019-05-05T00:52:59.751Z,3.15
2019-05-05T00:53:59.840Z,3.15
2019-05-05T00:54:59.906Z,3.07
2019-05-05T00:55:59.881Z,3.10
2019-05-05T00:57:00.015Z,3.01
2019-05-05T00:58:00.019Z,3.01
2019-05-05T00:59:00.057Z,3.04
2019-05-05T01:00:00.083Z,2.92
2019-05-05T01:01:00.216Z,2.92
2019-05-05T01:02:00.890Z,3.04
2019-05-05T01:03:00.283Z,2.87
2019-05-05T01:04:00.895Z,2.84
2019-05-05T01:05:00.428Z,2.90
2019-05-05T01:06:00.421Z,2.89
2019-05-05T01:07:00.538Z,2.94
2019-05-05T01:08:00.491Z,2.95
2019-05-05T01:09:00.562Z,2.99
2019-05-05T01:10:00.593Z,2.86
2019-05-05T01:11:00.644Z,2.87
2019-05-05T01:12:00.694Z,2.95
2019-05-05T01:13:00.746Z,2.86
2019-05-05T01:14:00.809Z,2.77
2019-05-05T01:15:00.849Z,2.71
2019-05-05T01:16:00.899Z,2.71
2019-05-05T01:17:00.953Z,2.56
2019-05-05T01:18:02.287Z,2.62
2019-05-05T01:19:01.110Z,2.61
2019-05-05T01:20:04.551Z,2.55
2019-05-05T01:21:01.210Z,2.55
2019-05-05T01:22:01.259Z,2.61
2019-05-05T01:23:01.364Z,2.56
2019-05-05T01:24:01.365Z,2.59
2019-05-05T01:25:01.364Z,2.56
2019-05-05T01:26:01.416Z,2.65
2019-05-05T01:27:01.483Z,2.53
2019-05-05T01:28:01.510Z,2.69
2019-05-05T01:29:01.561Z,2.63
2019-05-05T01:30:01.615Z,2.65
2019-05-05T01:31:01.667Z,2.61
2019-05-05T01:32:01.715Z,2.69
2019-05-05T01:33:01.870Z,2.69
2019-05-05T01:34:01.817Z,2.74
2019-05-05T01:35:01.868Z,2.65
2019-05-05T01:36:01.920Z,2.77
2019-05-05T01:37:01.969Z,2.62
2019-05-05T01:38:02.030Z,2.55
2019-05-05T01:39:04.127Z,2.53
2019-05-05T01:40:02.121Z,2.61
2019-05-05T01:41:04.105Z,2.58
2019-05-05T01:42:02.224Z,2.58
2019-05-05T01:43:02.275Z,2.50
2019-05-05T01:44:02.327Z,2.48
2019-05-05T01:45:04.403Z,2.43
2019-05-05T01:46:02.428Z,2.36
2019-05-05T01:47:02.479Z,2.43
2019-05-05T01:48:02.530Z,2.43
2019-05-05T01:49:02.579Z,2.50
2019-05-05T01:50:15.225Z,2.51
2019-05-05T01:51:04.843Z,2.53
2019-05-05T01:52:04.382Z,2.38
2019-05-05T01:53:04.618Z,2.47
2019-05-05T01:54:05.020Z,2.48
2019-05-05T01:55:02.885Z,2.53
2019-05-05T01:56:04.903Z,2.45
2019-05-05T01:57:05.272Z,2.48
2019-05-05T01:58:04.715Z,2.45
2019-05-05T01:59:05.087Z,2.51
2019-05-05T02:00:04.244Z,2.45
2019-05-05T02:01:05.018Z,2.45
2019-05-05T02:02:04.299Z,2.45
2019-05-05T02:03:04.538Z,2.47
2019-05-05T02:04:05.420Z,2.37
2019-05-05T02:05:04.618Z,2.48
2019-05-05T02:06:05.232Z,2.43
2019-05-05T02:07:05.369Z,2.36
2019-05-05T02:08:04.981Z,2.26
2019-05-05T02:09:05.299Z,2.33
2019-05-05T02:10:06.033Z,2.36
2019-05-05T02:11:05.228Z,2.40
2019-05-05T02:12:05.169Z,2.40
2019-05-05T02:13:04.678Z,2.45
2019-05-05T02:14:05.068Z,2.38
2019-05-05T02:15:04.297Z,2.40
2019-05-05T02:16:04.583Z,2.38
2019-05-05T02:17:05.088Z,2.44
2019-05-05T02:18:04.639Z,2.37
2019-05-05T02:19:05.046Z,2.50
2019-05-05T02:20:05.265Z,2.48
2019-05-05T02:21:04.997Z,2.47
2019-05-05T02:22:05.257Z,2.50
2019-05-05T02:23:04.701Z,2.47
2019-05-05T02:24:05.226Z,2.38
2019-05-05T02:25:04.402Z,2.40
2019-05-05T02:26:04.686Z,2.20
2019-05-05T02:27:05.181Z,2.36
2019-05-05T02:28:04.598Z,2.37
2019-05-05T02:29:04.982Z,2.33
2019-05-05T02:30:06.150Z,2.29
2019-05-05T02:31:05.631Z,2.38
2019-05-05T02:32:06.364Z,2.32
2019-05-05T02:33:06.331Z,2.25
2019-05-05T02:34:05.536Z,2.36
2019-05-05T02:35:06.421Z,2.33
2019-05-05T02:36:05.726Z,2.33
2019-05-05T02:37:05.545Z,2.33
2019-05-05T02:38:06.503Z,2.26
2019-05-05T02:39:05.603Z,2.14
2019-05-05T02:40:07.555Z,2.14
2019-05-05T02:41:05.489Z,2.11
2019-05-05T02:42:05.902Z,2.20
2019-05-05T02:43:05.628Z,2.18
2019-05-05T02:44:05.367Z,2.20
2019-05-05T02:45:05.812Z,2.08
2019-05-05T02:46:05.770Z,2.09
2019-05-05T02:47:05.524Z,2.09
2019-05-05T02:48:06.176Z,2.14
2019-05-05T02:49:05.731Z,2.11
2019-05-05T02:50:05.670Z,2.20
2019-05-05T02:51:07.006Z,2.08
2019-05-05T02:52:05.768Z,2.12
2019-05-05T02:53:05.819Z,2.12
2019-05-05T02:54:05.871Z,2.04
2019-05-05T02:55:05.921Z,2.05
2019-05-05T02:56:05.971Z,2.15
2019-05-05T02:57:06.020Z,2.15
2019-05-05T02:58:06.076Z,2.14
2019-05-05T02:59:06.122Z,2.02
2019-05-05T03:00:06.173Z,2.01
2019-05-05T03:01:06.224Z,2.09
2019-05-05T03:02:06.274Z,2.09
2019-05-05T03:03:06.325Z,2.05
2019-05-05T03:04:06.374Z,1.89
2019-05-05T03:05:06.426Z,2.07
2019-05-05T03:06:06.476Z,2.18
2019-05-05T03:07:06.530Z,2.22
2019-05-05T03:08:06.575Z,2.26
2019-05-05T03:09:06.626Z,2.32
2019-05-05T03:10:06.677Z,2.32
2019-05-05T03:11:06.730Z,2.36
2019-05-05T03:12:06.779Z,2.14
2019-05-05T03:13:06.829Z,2.26
2019-05-05T03:14:06.880Z,2.29
2019-05-05T03:15:06.931Z,2.07
2019-05-05T03:16:06.980Z,2.11
2019-05-05T03:17:07.033Z,2.08
2019-05-05T03:18:07.082Z,2.19
2019-05-05T03:19:07.133Z,2.32
2019-05-05T03:20:07.184Z,2.38
2019-05-05T03:21:07.554Z,2.36
2019-05-05T03:22:07.285Z,2.43
2019-05-05T03:23:07.336Z,2.36
2019-05-05T03:24:07.385Z,2.36
2019-05-05T03:25:07.435Z,2.44
2019-05-05T03:26:07.850Z,2.48
2019-05-05T03:27:07.538Z,2.40
2019-05-05T03:28:07.589Z,2.29
2019-05-05T03:29:07.639Z,2.27
2019-05-05T03:30:07.690Z,2.11
2019-05-05T03:31:07.741Z,2.15
2019-05-05T03:32:11.477Z,2.15
2019-05-05T03:33:07.844Z,2.20
2019-05-05T03:34:07.895Z,2.19
2019-05-05T03:35:07.946Z,2.18
2019-05-05T03:36:07.994Z,2.19
2019-05-05T03:37:08.047Z,2.25
2019-05-05T03:38:08.096Z,2.27
2019-05-05T03:39:08.147Z,2.33
2019-05-05T03:40:08.196Z,2.30
2019-05-05T03:41:08.248Z,2.36
2019-05-05T03:42:08.298Z,2.38
2019-05-05T03:43:08.348Z,2.44
2019-05-05T03:44:08.399Z,2.37
2019-05-05T03:45:08.450Z,2.30
2019-05-05T03:46:08.518Z,2.32
2019-05-05T03:47:08.555Z,2.15
2019-05-05T03:48:08.601Z,2.18
2019-05-05T03:49:08.692Z,2.14
2019-05-05T03:50:08.707Z,2.20
2019-05-05T03:51:18.126Z,2.26
2019-05-05T03:52:08.805Z,2.32
2019-05-05T03:53:08.856Z,2.26
2019-05-05T03:54:08.907Z,2.36
2019-05-05T03:55:08.961Z,2.40
2019-05-05T03:56:09.009Z,2.41
2019-05-05T03:57:09.091Z,2.32
2019-05-05T03:58:09.109Z,2.38
2019-05-05T03:59:09.184Z,2.30
2019-05-05T04:00:09.216Z,2.30
2019-05-05T04:01:09.797Z,2.36
2019-05-05T04:02:09.927Z,2.30
2019-05-05T04:03:09.856Z,2.27
2019-05-05T04:04:09.885Z,2.26
2019-05-05T04:05:09.923Z,2.23
2019-05-05T04:06:09.517Z,2.23
2019-05-05T04:07:09.570Z,2.27
2019-05-05T04:08:09.617Z,2.23
2019-05-05T04:09:09.669Z,2.30
2019-05-05T04:10:09.720Z,2.27
2019-05-05T04:11:09.776Z,2.26
2019-05-05T04:12:09.820Z,2.29
2019-05-05T04:13:09.871Z,2.29
2019-05-05T04:14:09.922Z,2.36
2019-05-05T04:15:09.974Z,2.20
2019-05-05T04:16:10.024Z,2.26
2019-05-05T04:17:10.074Z,2.32
2019-05-05T04:18:10.126Z,2.32
2019-05-05T04:19:10.177Z,2.37
2019-05-05T04:20:10.227Z,2.37
2019-05-05T04:21:10.278Z,2.32
2019-05-05T04:22:10.329Z,2.26
2019-05-05T04:23:10.379Z,2.36
2019-05-05T04:24:10.431Z,2.30
2019-05-05T04:25:10.481Z,2.38
2019-05-05T04:26:10.531Z,2.30
2019-05-05T04:27:10.583Z,2.33
2019-05-05T04:28:10.633Z,2.38
2019-05-05T04:29:10.684Z,2.37
2019-05-05T04:30:10.736Z,2.27
2019-05-05T04:31:10.787Z,2.33
2019-05-05T04:32:10.836Z,2.29
2019-05-05T04:33:10.887Z,2.12
2019-05-05T04:34:10.938Z,2.15
2019-05-05T04:35:10.989Z,2.22
2019-05-05T04:36:11.040Z,2.29
2019-05-05T04:37:11.092Z,2.33
2019-05-05T04:38:11.142Z,2.27
2019-05-05T04:39:11.193Z,2.22
2019-05-05T04:40:11.244Z,2.29
2019-05-05T04:41:11.294Z,2.29
2019-05-05T04:42:11.344Z,2.32
2019-05-05T04:43:11.397Z,2.32
2019-05-05T04:44:11.447Z,2.30
2019-05-05T04:45:11.499Z,2.32
2019-05-05T04:46:11.550Z,2.33
2019-05-05T04:47:11.601Z,2.26
2019-05-05T04:48:13.651Z,2.30
2019-05-05T04:49:11.702Z,2.38
2019-05-05T04:50:11.753Z,2.40
2019-05-05T04:51:13.768Z,2.43
2019-05-05T04:52:11.855Z,2.48
2019-05-05T04:53:13.523Z,2.38
2019-05-05T04:54:14.060Z,2.47
2019-05-05T04:55:13.798Z,2.50
2019-05-05T04:56:13.646Z,2.44
2019-05-05T04:57:12.110Z,2.56
2019-05-05T04:58:13.713Z,2.51
2019-05-05T04:59:14.298Z,2.56
2019-05-05T05:00:13.698Z,2.53
2019-05-05T05:01:13.577Z,2.50
2019-05-05T05:02:14.293Z,2.36
2019-05-05T05:03:13.339Z,2.40
2019-05-05T05:04:13.778Z,2.32
2019-05-05T05:05:14.382Z,2.45
2019-05-05T05:06:14.542Z,2.43
2019-05-05T05:07:13.593Z,2.55
2019-05-05T05:08:13.939Z,2.63
2019-05-05T05:09:14.536Z,2.61
2019-05-05T05:10:13.813Z,2.61
2019-05-05T05:11:14.148Z,2.61
2019-05-05T05:12:14.643Z,2.56
2019-05-05T05:13:13.847Z,2.55
2019-05-05T05:14:14.408Z,2.58
2019-05-05T05:15:14.654Z,2.62
2019-05-05T05:16:13.847Z,2.58
2019-05-05T05:17:14.123Z,2.65
2019-05-05T05:18:14.811Z,2.66
2019-05-05T05:19:13.894Z,2.76
2019-05-05T05:20:14.131Z,2.84
2019-05-05T05:21:14.528Z,2.77
2019-05-05T05:22:13.742Z,2.62
2019-05-05T05:23:14.114Z,2.58
2019-05-05T05:24:14.656Z,2.69
2019-05-05T05:25:13.737Z,2.76
2019-05-05T05:26:13.987Z,2.76
2019-05-05T05:27:13.942Z,2.79
2019-05-05T05:28:14.326Z,2.76
2019-05-05T05:29:15.101Z,2.87
2019-05-05T05:30:13.975Z,2.86
2019-05-05T05:31:14.145Z,2.98
2019-05-05T05:32:15.567Z,3.02
2019-05-05T05:33:14.958Z,3.02
2019-05-05T05:34:14.833Z,3.05
2019-05-05T05:35:14.310Z,3.04
2019-05-05T05:36:14.518Z,2.87
2019-05-05T05:37:14.169Z,3.04
2019-05-05T05:38:14.287Z,3.12
2019-05-05T05:39:14.267Z,3.08
2019-05-05T05:40:14.527Z,3.05
2019-05-05T05:41:14.371Z,2.99
2019-05-05T05:42:14.423Z,3.04
2019-05-05T05:43:14.476Z,3.02
2019-05-05T05:44:14.526Z,3.12
2019-05-05T05:45:14.690Z,3.10
2019-05-05T05:46:14.632Z,3.19
2019-05-05T05:47:14.682Z,3.10
2019-05-05T05:48:14.740Z,3.19
2019-05-05T05:49:14.785Z,3.20
2019-05-05T05:50:14.839Z,3.17
2019-05-05T05:51:15.368Z,3.42
2019-05-05T05:52:18.959Z,3.50
2019-05-05T05:53:14.995Z,3.56
2019-05-05T05:54:15.047Z,3.50
2019-05-05T05:55:15.099Z,3.41
2019-05-05T05:56:15.150Z,3.45
2019-05-05T05:57:15.204Z,3.41
2019-05-05T05:58:15.258Z,3.39
2019-05-05T05:59:15.308Z,3.53
2019-05-05T06:00:15.370Z,3.57
2019-05-05T06:01:16.014Z,3.68
2019-05-05T06:02:15.927Z,3.70
2019-05-05T06:03:16.109Z,3.71
2019-05-05T06:04:15.568Z,3.78
2019-05-05T06:05:15.621Z,3.77
2019-05-05T06:06:15.674Z,3.86
2019-05-05T06:07:15.727Z,3.88
2019-05-05T06:08:15.783Z,3.93
2019-05-05T06:09:15.831Z,3.89
2019-05-05T06:10:24.328Z,3.86
2019-05-05T06:11:15.937Z,3.86
2019-05-05T06:12:15.988Z,3.81
2019-05-05T06:13:16.048Z,3.84
2019-05-05T06:14:16.094Z,3.82
2019-05-05T06:15:16.147Z,3.95
2019-05-05T06:16:16.201Z,3.86
2019-05-05T06:17:16.252Z,3.90
2019-05-05T06:18:16.305Z,3.84
2019-05-05T06:19:16.360Z,3.95
2019-05-05T06:20:16.409Z,4.00
2019-05-05T06:21:16.463Z,4.13
2019-05-05T06:22:28.213Z,4.21
2019-05-05T06:23:16.567Z,4.36
2019-05-05T06:24:16.621Z,4.44
2019-05-05T06:25:16.678Z,4.54
2019-05-05T06:26:16.727Z,4.62
2019-05-05T06:27:16.780Z,4.71
2019-05-05T06:28:16.833Z,4.64
2019-05-05T06:29:16.885Z,4.74
2019-05-05T06:30:16.939Z,4.84
2019-05-05T06:31:16.992Z,4.91
2019-05-05T06:32:17.045Z,4.87
2019-05-05T06:33:17.098Z,4.94
2019-05-05T06:34:17.151Z,4.91
2019-05-05T06:35:17.204Z,4.87
2019-05-05T06:36:17.258Z,4.94
2019-05-05T06:37:17.311Z,5.02
2019-05-05T06:38:17.364Z,5.12
2019-05-05T06:39:17.417Z,5.14
2019-05-05T06:40:17.472Z,5.12
2019-05-05T06:41:17.523Z,5.17
2019-05-05T06:42:17.585Z,5.20
2019-05-05T06:43:17.631Z,5.32
2019-05-05T06:44:17.687Z,5.47
2019-05-05T06:45:17.738Z,5.47
2019-05-05T06:46:17.792Z,5.60
2019-05-05T06:47:17.846Z,5.60
2019-05-05T06:48:17.898Z,5.62
2019-05-05T06:49:18.356Z,5.62
2019-05-05T06:50:18.009Z,5.67
2019-05-05T06:51:18.060Z,5.70
2019-05-05T06:52:18.115Z,5.59
2019-05-05T06:53:18.166Z,5.63
2019-05-05T06:54:18.222Z,5.70
2019-05-05T06:55:18.276Z,5.74
2019-05-05T06:56:18.328Z,5.90
2019-05-05T06:57:18.385Z,5.90
2019-05-05T06:58:18.438Z,5.88
2019-05-05T06:59:18.576Z,6.11
2019-05-05T07:00:18.544Z,6.13
2019-05-05T07:01:19.332Z,6.25
2019-05-05T07:02:18.655Z,6.36
2019-05-05T07:03:18.707Z,6.43
2019-05-05T07:04:18.760Z,6.55
2019-05-05T07:05:18.817Z,6.57
2019-05-05T07:06:18.870Z,6.63
2019-05-05T07:07:18.929Z,6.55
2019-05-05T07:08:18.979Z,6.58
2019-05-05T07:09:19.403Z,6.60
2019-05-05T07:10:19.088Z,6.71
2019-05-05T07:11:19.260Z,6.78
2019-05-05T07:12:19.199Z,6.82
2019-05-05T07:13:19.260Z,6.87
2019-05-05T07:14:19.306Z,6.91
2019-05-05T07:15:19.360Z,6.89
2019-05-05T07:16:19.422Z,6.89
2019-05-05T07:17:19.470Z,6.96
2019-05-05T07:18:19.553Z,6.69
2019-05-05T07:19:19.580Z,6.81
2019-05-05T07:20:19.635Z,6.89
2019-05-05T07:21:19.691Z,6.99
2019-05-05T07:22:19.746Z,7.01
2019-05-05T07:23:19.802Z,7.14
2019-05-05T07:24:19.870Z,7.19
2019-05-05T07:25:19.911Z,7.29
2019-05-05T07:26:19.966Z,7.32
2019-05-05T07:27:20.021Z,7.42
2019-05-05T07:28:20.077Z,7.48
2019-05-05T07:29:20.133Z,7.50
2019-05-05T07:30:20.187Z,7.51
2019-05-05T07:31:20.244Z,7.57
2019-05-05T07:32:20.299Z,7.54
2019-05-05T07:33:20.357Z,7.55
2019-05-05T07:34:20.409Z,7.54
2019-05-05T07:35:20.473Z,7.54
2019-05-05T07:36:20.521Z,7.54
2019-05-05T07:37:20.577Z,7.42
2019-05-05T07:38:20.635Z,7.54
2019-05-05T07:39:20.690Z,7.82
2019-05-05T07:40:20.742Z,8.04
2019-05-05T07:41:20.800Z,8.13
2019-05-05T07:42:20.855Z,8.32
2019-05-05T07:43:20.912Z,8.47
2019-05-05T07:44:28.413Z,8.52
2019-05-05T07:45:25.158Z,8.54
2019-05-05T07:46:21.079Z,8.67
2019-05-05T07:47:21.143Z,8.78
2019-05-05T07:48:21.192Z,8.82
2019-05-05T07:49:21.247Z,8.89
2019-05-05T07:50:31.282Z,8.94
2019-05-05T07:51:21.361Z,8.64
2019-05-05T07:52:23.594Z,8.57
2019-05-05T07:53:21.499Z,8.32
2019-05-05T07:54:23.539Z,8.27
2019-05-05T07:55:23.655Z,8.37
2019-05-05T07:56:23.661Z,8.58
2019-05-05T07:57:23.678Z,8.36
2019-05-05T07:58:21.756Z,8.40
2019-05-05T07:59:23.832Z,8.42
2019-05-05T08:00:23.936Z,8.54
2019-05-05T08:01:21.927Z,8.58
2019-05-05T08:02:23.680Z,8.54
2019-05-05T08:03:23.655Z,8.54
2019-05-05T08:04:24.112Z,8.25
2019-05-05T08:05:22.151Z,8.07
2019-05-05T08:06:23.676Z,7.94
2019-05-05T08:07:24.025Z,7.89
2019-05-05T08:08:24.300Z,8.06
2019-05-05T08:09:24.670Z,7.99
2019-05-05T08:10:24.102Z,8.13
2019-05-05T08:11:23.863Z,8.27
2019-05-05T08:12:24.759Z,8.34
2019-05-05T08:13:24.318Z,8.43
2019-05-05T08:14:24.561Z,8.63
2019-05-05T08:15:23.781Z,8.70
2019-05-05T08:16:24.250Z,8.78
2019-05-05T08:17:23.551Z,8.78
2019-05-05T08:18:24.300Z,8.76
2019-05-05T08:19:24.187Z,8.75
2019-05-05T08:20:23.784Z,8.50
2019-05-05T08:21:24.057Z,8.47
2019-05-05T08:22:23.609Z,8.36
2019-05-05T08:23:30.322Z,8.39
2019-05-05T08:24:24.412Z,8.47
2019-05-05T08:25:36.166Z,8.42
2019-05-05T08:26:23.707Z,8.36
2019-05-05T08:27:24.984Z,8.10
2019-05-05T08:28:23.750Z,8.02
2019-05-05T08:29:23.995Z,8.09
2019-05-05T08:30:24.407Z,7.94
2019-05-05T08:31:24.977Z,7.91
2019-05-05T08:32:23.887Z,7.99
2019-05-05T08:33:24.172Z,7.94
2019-05-05T08:34:24.453Z,7.91
2019-05-05T08:35:23.901Z,7.84
2019-05-05T08:36:23.894Z,7.88
2019-05-05T08:38:00.870Z,8.07
2019-05-05T08:38:24.314Z,8.13
2019-05-05T08:39:24.537Z,8.20
2019-05-05T08:40:24.150Z,8.28
2019-05-05T08:41:24.450Z,8.39
2019-05-05T08:42:24.786Z,8.43
2019-05-05T08:43:24.320Z,8.46
2019-05-05T08:44:24.342Z,8.58
2019-05-05T08:45:26.640Z,8.71
2019-05-05T08:46:24.792Z,8.91
2019-05-05T08:47:24.935Z,8.94
2019-05-05T08:48:24.740Z,8.75
2019-05-05T08:49:24.628Z,8.85
2019-05-05T08:50:26.967Z,8.91
2019-05-05T08:51:24.806Z,8.79
2019-05-05T08:52:24.794Z,8.82
2019-05-05T08:53:24.848Z,8.82
2019-05-05T08:54:24.906Z,8.88
2019-05-05T08:55:28.343Z,8.96
2019-05-05T08:56:25.018Z,9.03
2019-05-05T08:57:25.076Z,9.04
2019-05-05T08:58:25.144Z,9.08
2019-05-05T08:59:25.190Z,8.86
2019-05-05T09:00:25.743Z,8.37
2019-05-05T09:01:25.306Z,8.14
2019-05-05T09:02:25.358Z,8.07
2019-05-05T09:03:25.421Z,8.17
2019-05-05T09:04:25.472Z,8.22
2019-05-05T09:05:25.529Z,8.29
2019-05-05T09:06:25.585Z,8.52
2019-05-05T09:07:25.643Z,8.60
2019-05-05T09:08:25.700Z,8.67
2019-05-05T09:09:25.754Z,8.70
2019-05-05T09:10:25.811Z,8.65
2019-05-05T09:11:25.867Z,8.75
2019-05-05T09:12:25.924Z,8.78
2019-05-05T09:13:25.982Z,8.80
2019-05-05T09:14:26.038Z,8.82
2019-05-05T09:15:26.095Z,9.03
2019-05-05T09:16:26.149Z,9.17
2019-05-05T09:17:28.026Z,9.31
2019-05-05T09:18:26.263Z,9.38
2019-05-05T09:19:26.977Z,9.38
2019-05-05T09:20:26.378Z,9.35
2019-05-05T09:21:26.435Z,9.30
2019-05-05T09:22:26.492Z,9.40
2019-05-05T09:23:26.549Z,9.52
2019-05-05T09:24:26.614Z,9.65
2019-05-05T09:25:26.663Z,9.77
2019-05-05T09:26:26.719Z,9.48
2019-05-05T09:27:28.379Z,9.52
2019-05-05T09:28:26.833Z,9.50
2019-05-05T09:29:26.890Z,9.32
2019-05-05T09:30:26.948Z,9.20
2019-05-05T09:31:27.007Z,9.03
2019-05-05T09:32:27.063Z,9.10
2019-05-05T09:33:27.119Z,9.26
2019-05-05T09:34:27.178Z,9.22
2019-05-05T09:35:27.234Z,9.48
2019-05-05T09:36:27.290Z,9.75
2019-05-05T09:37:27.348Z,9.93
2019-05-05T09:38:30.064Z,10.06
2019-05-05T09:39:27.464Z,10.02
2019-05-05T09:40:27.525Z,10.36
2019-05-05T09:41:27.577Z,10.42
2019-05-05T09:42:27.636Z,10.54
2019-05-05T09:43:27.694Z,10.75
2019-05-05T09:44:27.751Z,10.81
2019-05-05T09:45:27.808Z,10.80
2019-05-05T09:46:27.867Z,10.91
2019-05-05T09:47:27.926Z,10.93
2019-05-05T09:48:27.981Z,10.72
2019-05-05T09:49:28.040Z,10.54
2019-05-05T09:50:28.099Z,10.51
2019-05-05T09:51:28.158Z,10.26
2019-05-05T09:52:28.217Z,10.36
2019-05-05T09:53:28.274Z,10.58
2019-05-05T09:54:28.333Z,10.63
2019-05-05T09:55:28.397Z,10.72
2019-05-05T09:56:28.450Z,10.70
2019-05-05T09:57:28.506Z,10.29
2019-05-05T09:58:28.567Z,10.38
2019-05-05T09:59:28.625Z,10.55
2019-05-05T10:00:28.685Z,10.75
2019-05-05T10:01:28.744Z,10.72
2019-05-05T10:02:28.800Z,10.87
2019-05-05T10:03:28.857Z,10.75
2019-05-05T10:04:28.916Z,10.70
2019-05-05T10:05:28.977Z,10.55
2019-05-05T10:06:29.034Z,10.58
2019-05-05T10:07:29.091Z,10.75
2019-05-05T10:08:29.150Z,10.81
2019-05-05T10:09:29.208Z,10.95
2019-05-05T10:10:29.266Z,10.99
2019-05-05T10:11:29.326Z,11.24
2019-05-05T10:12:29.383Z,11.09
2019-05-05T10:13:29.444Z,11.03
2019-05-05T10:14:30.070Z,11.05
2019-05-05T10:15:29.560Z,10.95
2019-05-05T10:16:29.619Z,10.98
2019-05-05T10:17:29.678Z,11.05
2019-05-05T10:18:29.735Z,11.28
2019-05-05T10:19:29.801Z,11.26
2019-05-05T10:20:29.852Z,11.30
2019-05-05T10:21:29.911Z,11.54
2019-05-05T10:22:29.971Z,11.41
2019-05-05T10:23:30.028Z,11.57
2019-05-05T10:24:31.173Z,11.63
2019-05-05T10:25:30.146Z,11.46
2019-05-05T10:26:30.206Z,11.44
2019-05-05T10:27:42.654Z,11.60
2019-05-05T10:28:30.323Z,11.78
2019-05-05T10:29:30.383Z,11.94
2019-05-05T10:30:30.446Z,12.11
2019-05-05T10:31:30.502Z,12.22
2019-05-05T10:32:30.562Z,12.30
2019-05-05T10:33:30.620Z,11.66
2019-05-05T10:34:30.681Z,11.46
2019-05-05T10:35:30.741Z,10.84
2019-05-05T10:36:30.799Z,10.91
2019-05-05T10:37:30.861Z,10.98
2019-05-05T10:38:30.917Z,11.13
2019-05-05T10:39:30.977Z,11.31
2019-05-05T10:40:31.037Z,11.42
2019-05-05T10:41:31.095Z,11.38
2019-05-05T10:42:31.155Z,11.42
2019-05-05T10:43:31.215Z,11.64
2019-05-05T10:44:31.274Z,11.66
2019-05-05T10:45:31.332Z,11.57
2019-05-05T10:46:31.394Z,11.21
2019-05-05T10:47:33.069Z,11.39
2019-05-05T10:48:31.510Z,12.69
2019-05-05T10:49:33.503Z,13.12
2019-05-05T10:50:33.885Z,12.95
2019-05-05T10:51:31.690Z,12.70
2019-05-05T10:52:33.649Z,11.74
2019-05-05T10:53:31.807Z,11.79
2019-05-05T10:54:43.264Z,13.04
2019-05-05T10:55:31.927Z,12.94
2019-05-05T10:56:31.986Z,12.98
2019-05-05T10:57:34.038Z,13.41
2019-05-05T10:58:33.594Z,13.28
2019-05-05T10:59:34.182Z,13.73
2019-05-05T11:00:33.770Z,14.21
2019-05-05T11:01:32.287Z,13.76
2019-05-05T11:02:34.498Z,13.66
2019-05-05T11:03:34.324Z,12.74
2019-05-05T11:04:33.526Z,12.76
2019-05-05T11:05:33.944Z,13.84
2019-05-05T11:06:32.592Z,13.06
2019-05-05T11:07:34.098Z,12.96
2019-05-05T11:08:34.716Z,12.94
2019-05-05T11:09:33.717Z,13.62
2019-05-05T11:10:33.947Z,13.12
2019-05-05T11:11:34.375Z,13.25
2019-05-05T11:12:33.731Z,13.73
2019-05-05T11:13:34.434Z,13.80
2019-05-05T11:14:33.670Z,14.67
2019-05-05T11:15:33.605Z,14.49
2019-05-05T11:16:33.204Z,13.79
2019-05-05T11:17:33.264Z,13.50
2019-05-05T11:18:34.520Z,13.09
2019-05-05T11:19:33.665Z,13.01
2019-05-05T11:20:34.003Z,13.29
2019-05-05T11:21:34.188Z,13.22
2019-05-05T11:22:34.661Z,12.70
2019-05-05T11:23:34.574Z,12.36
2019-05-05T11:24:34.609Z,12.73
2019-05-05T11:25:33.895Z,13.73
2019-05-05T11:26:33.990Z,14.02
2019-05-05T11:27:34.538Z,13.80
2019-05-05T11:28:34.062Z,14.02
2019-05-05T11:29:34.010Z,13.44
2019-05-05T11:30:34.110Z,12.58
2019-05-05T11:31:34.390Z,13.01
2019-05-05T11:32:34.195Z,13.81
2019-05-05T11:33:34.603Z,14.53
2019-05-05T11:34:34.320Z,13.87
2019-05-05T11:35:34.380Z,13.53
2019-05-05T11:36:34.638Z,13.91
2019-05-05T11:37:34.502Z,14.97
2019-05-05T11:38:34.568Z,14.67
2019-05-05T11:39:34.627Z,14.39
2019-05-05T11:40:34.689Z,15.04
2019-05-05T11:41:34.750Z,15.48
2019-05-05T11:42:34.815Z,14.98
2019-05-05T11:43:34.882Z,15.68
2019-05-05T11:44:34.939Z,15.27
2019-05-05T11:45:35.000Z,14.46
2019-05-05T11:46:35.063Z,13.98
2019-05-05T11:47:35.126Z,13.84
2019-05-05T11:48:35.188Z,13.81
2019-05-05T11:49:35.255Z,13.68
2019-05-05T11:50:35.314Z,13.73
2019-05-05T11:51:35.375Z,13.66
2019-05-05T11:52:35.438Z,13.59
2019-05-05T11:53:35.498Z,13.55
2019-05-05T11:54:35.570Z,13.51
2019-05-05T11:55:35.624Z,13.39
2019-05-05T11:56:35.685Z,13.19
2019-05-05T11:57:35.746Z,12.89
2019-05-05T11:58:35.808Z,12.73
2019-05-05T11:59:35.868Z,12.63
2019-05-05T12:00:35.930Z,12.70
2019-05-05T12:01:35.989Z,12.48
2019-05-05T12:02:36.052Z,11.85
2019-05-05T12:03:37.821Z,11.46
2019-05-05T12:04:36.171Z,11.42
2019-05-05T12:05:36.233Z,11.23
2019-05-05T12:06:36.291Z,11.12
2019-05-05T12:07:36.354Z,11.16
2019-05-05T12:08:36.411Z,10.99
2019-05-05T12:09:36.471Z,10.63
2019-05-05T12:10:36.530Z,10.54
2019-05-05T12:11:36.591Z,10.44
2019-05-05T12:12:36.649Z,10.36
2019-05-05T12:13:36.706Z,10.25
2019-05-05T12:14:36.766Z,9.98
2019-05-05T12:15:36.825Z,10.10
2019-05-05T12:16:36.884Z,10.06
2019-05-05T12:17:36.939Z,9.96
2019-05-05T12:18:36.998Z,9.95
2019-05-05T12:19:37.056Z,9.77
2019-05-05T12:20:37.115Z,9.73
2019-05-05T12:21:37.171Z,9.45
2019-05-05T12:22:37.229Z,9.50
2019-05-05T12:23:37.288Z,9.52
2019-05-05T12:24:37.344Z,9.65
2019-05-05T12:25:37.402Z,9.63
2019-05-05T12:26:37.460Z,9.68
2019-05-05T12:27:37.518Z,9.70
2019-05-05T12:28:37.579Z,9.83
2019-05-05T12:29:37.631Z,9.92
2019-05-05T12:30:37.688Z,10.11
2019-05-05T12:31:37.747Z,10.36
2019-05-05T12:32:37.805Z,10.70
2019-05-05T12:33:38.288Z,10.90
2019-05-05T12:34:37.921Z,11.06
2019-05-05T12:35:37.981Z,11.72
2019-05-05T12:36:38.033Z,11.64
2019-05-05T12:37:38.091Z,11.66
2019-05-05T12:38:38.155Z,11.66
2019-05-05T12:39:38.217Z,11.78
2019-05-05T12:40:38.266Z,11.74
2019-05-05T12:41:38.326Z,12.08
2019-05-05T12:42:38.386Z,12.21
2019-05-05T12:43:38.444Z,11.77
2019-05-05T12:44:38.501Z,11.78
2019-05-05T12:45:38.560Z,12.11
2019-05-05T12:46:38.619Z,12.30
2019-05-05T12:47:38.678Z,12.33
2019-05-05T12:48:38.736Z,12.13
2019-05-05T12:49:38.797Z,12.56
2019-05-05T12:50:38.856Z,12.87
2019-05-05T12:51:38.916Z,13.32
2019-05-05T12:52:38.975Z,13.29
2019-05-05T12:53:39.038Z,13.69
2019-05-05T12:54:39.093Z,13.80
2019-05-05T12:55:41.818Z,14.74
2019-05-05T12:56:39.213Z,15.86
2019-05-05T12:57:39.273Z,16.36
2019-05-05T12:58:39.337Z,17.22
2019-05-05T12:59:39.397Z,17.36
2019-05-05T13:00:39.972Z,17.32
2019-05-05T13:01:40.032Z,16.84
2019-05-05T13:02:40.174Z,15.23
2019-05-05T13:03:39.821Z,14.54
2019-05-05T13:04:40.288Z,13.99
2019-05-05T13:05:40.274Z,13.66
2019-05-05T13:06:40.322Z,13.31
2019-05-05T13:07:39.892Z,13.13
2019-05-05T13:08:39.952Z,12.91
2019-05-05T13:09:40.015Z,12.96
2019-05-05T13:10:40.077Z,12.73
2019-05-05T13:11:40.138Z,12.54
2019-05-05T13:12:40.203Z,12.59